Time;durP1;ratioP1;P1;durP2;ratioP2;P2;SDS_P1;SDS_P2;PMS_P1;PMS_P2;Temp;Humidity;BMP_temperature;BMP_pressure;BME280_temperature;BME280_humidity;BME280_pressure;Samples;Min_cycle;Max_cycle;Signal;HPM_P1;HPM_P2
2022/12/13 00:00:22;;;;;;;9.60;8.60;;;16.10;51.40;17.00;100362.00;;;;5049265;28;20202;-42
2022/12/13 00:02:48;;;;;;;9.27;8.27;;;16.10;51.50;17.00;100363.00;;;;5048802;28;20187;-42
2022/12/13 00:05:13;;;;;;;10.37;8.73;;;16.10;51.50;16.90;100366.00;;;;5049450;28;20537;-42
2022/12/13 00:07:39;;;;;;;9.33;8.43;;;16.00;51.70;16.90;100286.00;;;;5049857;28;20870;-42
2022/12/13 00:10:05;;;;;;;9.90;8.90;;;16.00;51.40;16.90;100356.00;;;;5049256;28;20209;-42
2022/12/13 00:12:31;;;;;;;10.20;9.20;;;15.90;51.20;16.80;100348.00;;;;5030932;28;20229;-42
2022/12/13 00:14:57;;;;;;;10.07;9.07;;;15.90;51.40;16.80;100352.00;;;;5035857;28;20181;-41
2022/12/13 00:17:23;;;;;;;10.10;9.10;;;15.90;51.40;16.80;100364.00;;;;5056170;28;20690;-41
2022/12/13 00:19:49;;;;;;;10.80;9.80;;;15.80;51.30;16.70;100351.00;;;;5032335;28;20196;-41
2022/12/13 00:22:15;;;;;;;9.80;8.80;;;15.80;51.10;16.70;100347.00;;;;5049332;28;20170;-42
2022/12/13 00:24:41;;;;;;;9.80;8.90;;;15.70;51.00;16.70;100348.00;;;;5048751;28;20281;-43
2022/12/13 00:27:07;;;;;;;9.73;8.77;;;15.70;50.80;16.60;100334.00;;;;5047957;28;20693;-42
2022/12/13 00:29:33;;;;;;;9.50;8.50;;;15.80;50.50;16.60;100349.00;;;;5047509;28;20186;-43
2022/12/13 00:31:59;;;;;;;10.23;8.70;;;15.80;50.60;16.60;100351.00;;;;5048049;28;20163;-41
2022/12/13 00:34:24;;;;;;;8.80;7.90;;;15.80;50.70;16.60;100347.00;;;;5047984;28;20181;-41
2022/12/13 00:36:52;;;;;;;8.80;7.87;;;15.70;50.70;16.60;100340.00;;;;5048082;28;20171;-41
2022/12/13 00:39:18;;;;;;;8.73;7.80;;;15.70;50.80;16.50;100342.00;;;;5048090;28;20220;-42
2022/12/13 00:41:44;;;;;;;8.40;7.20;;;15.70;51.00;16.50;100350.00;;;;5047976;28;20178;-41
2022/12/13 00:44:11;;;;;;;8.30;7.50;;;15.60;50.90;16.50;100345.00;;;;5030477;28;20194;-41
2022/12/13 00:46:37;;;;;;;8.77;7.87;;;15.60;51.00;16.50;100347.00;;;;5047890;28;20179;-42
2022/12/13 00:49:03;;;;;;;8.07;7.27;;;15.60;51.00;16.40;100346.00;;;;5047062;28;20248;-41
2022/12/13 00:51:30;;;;;;;7.87;7.10;;;15.60;51.20;16.40;100345.00;;;;5047759;28;20162;-43
2022/12/13 00:53:56;;;;;;;7.50;6.80;;;15.60;51.30;16.40;100345.00;;;;5047863;28;20162;-43
2022/12/13 00:56:24;;;;;;;8.20;7.33;;;15.50;51.20;16.30;100352.00;;;;5047783;28;20167;-43
2022/12/13 00:58:50;;;;;;;7.90;7.10;;;15.50;51.30;16.30;100350.00;;;;5047830;28;20193;-42
2022/12/13 01:01:17;;;;;;;7.47;6.77;;;15.50;51.50;16.30;100271.00;;;;5048187;28;20166;-42
2022/12/13 01:03:43;;;;;;;7.53;6.83;;;15.40;51.50;16.30;100344.00;;;;5047952;28;20238;-42
2022/12/13 01:06:11;;;;;;;7.30;6.60;;;15.40;51.50;16.20;100193.00;;;;5048139;28;20293;-42
2022/12/13 01:08:37;;;;;;;6.97;6.37;;;15.40;51.60;16.20;100342.00;;;;5048168;28;20232;-42
2022/12/13 01:11:04;;;;;;;7.00;6.40;;;15.40;51.70;16.10;100341.00;;;;5047917;28;20178;-41
2022/12/13 01:13:30;;;;;;;7.00;6.30;;;15.30;51.70;16.20;100340.00;;;;5048179;28;20167;-42
2022/12/13 01:15:55;;;;;;;7.77;6.97;;;15.30;51.80;16.10;100343.00;;;;5047763;28;20177;-42
2022/12/13 01:18:21;;;;;;;6.80;6.13;;;15.30;51.80;16.10;100341.00;;;;5047497;28;20173;-42
2022/12/13 01:21:01;;;;;;;7.13;6.43;;;15.30;51.90;16.10;100337.00;;;;5047477;28;20801;-42
2022/12/13 01:23:27;;;;;;;7.13;6.43;;;15.30;51.90;16.00;100344.00;;;;5047420;28;20158;-41
2022/12/13 01:25:53;;;;;;;6.83;6.23;;;15.20;52.00;16.00;100336.00;;;;5047570;28;20264;-42
2022/12/13 01:28:18;;;;;;;6.60;6.00;;;15.20;51.90;16.00;100338.00;;;;5047937;28;20260;-42
2022/12/13 01:30:48;;;;;;;6.20;5.60;;;15.20;52.10;16.00;100337.00;;;;5047565;28;20166;-42
2022/12/13 01:33:14;;;;;;;6.13;5.63;;;15.10;52.00;15.90;100344.00;;;;5013828;28;20699;-42
2022/12/13 01:35:40;;;;;;;6.73;6.13;;;15.10;52.00;15.90;100348.00;;;;5047469;28;20261;-42
2022/12/13 01:38:05;;;;;;;6.70;6.10;;;15.10;52.00;15.90;100338.00;;;;5047563;28;20189;-41
2022/12/13 01:40:31;;;;;;;6.33;5.73;;;15.10;52.00;15.90;100346.00;;;;5047611;28;20201;-41
2022/12/13 01:42:57;;;;;;;6.13;5.63;;;15.10;52.00;15.90;100338.00;;;;5047245;28;20674;-41
2022/12/13 01:45:27;;;;;;;6.27;5.77;;;15.10;52.00;15.90;100355.00;;;;5047700;28;20197;-42
2022/12/13 01:47:57;;;;;;;5.93;5.43;;;15.10;52.10;15.90;100353.00;;;;5047167;28;20171;-42
2022/12/13 01:50:27;;;;;;;6.87;6.27;;;15.00;52.00;15.90;100357.00;;;;5030120;28;20182;-40
2022/12/13 01:52:53;;;;;;;6.50;5.90;;;15.00;52.00;15.90;100355.00;;;;5030184;28;20178;-41
2022/12/13 01:55:19;;;;;;;6.10;5.60;;;15.00;52.00;15.80;100194.00;;;;5047438;28;20611;-42
2022/12/13 01:57:45;;;;;;;6.00;5.50;;;15.00;52.00;15.80;100354.00;;;;5029671;28;20174;-42
2022/12/13 02:00:12;;;;;;;6.57;5.97;;;15.00;52.10;15.80;100368.00;;;;5030612;28;20216;-42
2022/12/13 02:02:38;;;;;;;5.97;5.47;;;14.90;52.00;15.80;100365.00;;;;5050792;28;20189;-41
2022/12/13 02:05:23;;;;;;;6.43;5.83;;;14.90;52.00;15.80;100355.00;;;;5033177;28;20225;-42
2022/12/13 02:07:49;;;;;;;6.40;5.80;;;14.90;52.00;15.80;100347.00;;;;5035975;28;20169;-42
2022/12/13 02:10:15;;;;;;;6.10;5.60;;;14.90;52.10;15.80;100359.00;;;;5033126;28;20190;-42
2022/12/13 02:12:41;;;;;;;6.60;6.00;;;14.80;52.00;15.80;100356.00;;;;5050684;28;20541;-42
2022/12/13 02:15:14;;;;;;;6.20;5.70;;;14.80;52.00;15.80;100342.00;;;;5032576;28;20635;-42
2022/12/13 02:17:48;;;;;;;6.33;5.73;;;14.80;52.00;15.80;100361.00;;;;5017035;28;20178;-41
2022/12/13 02:20:51;;;;;;;5.83;5.33;;;14.80;52.10;15.70;100358.00;;;;5050844;28;20662;-43
2022/12/13 02:23:25;;;;;;;6.60;5.50;;;14.70;52.10;15.70;100351.00;;;;5050565;28;20196;-40
2022/12/13 02:26:21;;;;;;;5.90;5.40;;;14.70;52.10;15.70;100353.00;;;;5050351;28;20190;-42
2022/12/13 02:29:49;;;;;;;6.17;5.40;;;14.70;52.10;15.70;100341.00;;;;5035123;28;20182;-41
2022/12/13 02:32:50;;;;;;;5.80;5.30;;;14.70;52.10;15.60;100351.00;;;;5035165;28;20151;-41
2022/12/13 02:35:45;;;;;;;5.53;5.03;;;14.70;52.20;15.60;100344.00;;;;5050650;28;20222;-40
2022/12/13 02:38:28;;;;;;;5.70;5.20;;;14.60;52.20;15.60;100342.00;;;;5035820;28;20214;-41
2022/12/13 02:41:07;;;;;;;5.63;5.13;;;14.60;52.30;15.50;100343.00;;;;5033691;28;20241;-41
2022/12/13 02:43:44;;;;;;;5.63;5.13;;;14.60;52.30;15.50;100340.00;;;;5039238;28;20704;-41
2022/12/13 02:46:09;;;;;;;5.67;5.17;;;14.60;52.30;15.50;100253.00;;;;5023049;28;20209;-41
2022/12/13 02:48:37;;;;;;;5.60;5.10;;;14.50;52.20;15.50;100335.00;;;;5038653;28;20274;-41
2022/12/13 02:51:04;;;;;;;5.80;5.30;;;14.50;52.20;15.50;100345.00;;;;5033467;28;20651;-41
2022/12/13 02:53:30;;;;;;;5.40;4.90;;;14.50;52.20;15.50;100342.00;;;;5016251;28;20163;-42
2022/12/13 02:55:55;;;;;;;5.87;5.37;;;14.50;52.20;15.50;100339.00;;;;5033351;28;20166;-41
2022/12/13 02:58:26;;;;;;;5.83;5.33;;;14.50;52.20;15.40;100360.00;;;;5050392;28;20220;-41
2022/12/13 03:01:32;;;;;;;5.87;5.30;;;14.40;52.20;15.40;100273.00;;;;5018020;28;20204;-41
2022/12/13 03:04:29;;;;;;;5.83;5.33;;;14.40;52.30;15.40;100349.00;;;;5035813;28;20166;-40
2022/12/13 03:08:00;;;;;;;5.40;4.90;;;14.40;52.30;15.40;100346.00;;;;5035896;28;20214;-41
2022/12/13 03:10:43;;;;;;;5.53;5.03;;;14.40;52.30;15.30;100336.00;;;;4987887;28;20231;-40
2022/12/13 03:13:36;;;;;;;5.20;4.80;;;14.30;52.40;15.30;100351.00;;;;5018529;28;20158;-40
2022/12/13 03:16:32;;;;;;;5.50;5.03;;;14.30;52.50;15.30;100335.00;;;;5035661;28;20179;-41
2022/12/13 03:19:00;;;;;;;5.53;5.03;;;14.30;52.50;15.20;100334.00;;;;5035108;28;20229;-40
2022/12/13 03:21:26;;;;;;;5.40;5.00;;;14.30;52.50;15.20;100335.00;;;;5031850;28;20174;-42
2022/12/13 03:23:52;;;;;;;5.73;5.17;;;14.30;52.50;15.20;100330.00;;;;5049839;28;20170;-41
2022/12/13 03:26:21;;;;;;;5.47;4.97;;;14.20;52.50;15.20;100320.00;;;;5031560;28;20177;-42
2022/12/13 03:28:47;;;;;;;5.33;4.83;;;14.20;52.50;15.20;100331.00;;;;5049678;28;20194;-42
2022/12/13 03:31:13;;;;;;;5.70;5.20;;;14.20;52.50;15.20;100332.00;;;;5049281;28;20271;-40
2022/12/13 03:33:38;;;;;;;5.73;5.20;;;14.10;52.50;15.20;100335.00;;;;5049111;28;20264;-41
2022/12/13 03:36:04;;;;;;;5.83;5.33;;;14.10;52.50;15.20;100325.00;;;;5049264;28;20960;-42
2022/12/13 03:38:30;;;;;;;5.27;4.87;;;14.10;52.50;15.10;100323.00;;;;5031625;28;20194;-41
2022/12/13 03:41:00;;;;;;;5.70;5.20;;;14.10;52.50;15.10;100332.00;;;;5031553;28;20198;-42
2022/12/13 03:43:26;;;;;;;5.20;4.70;;;14.10;52.60;15.10;100317.00;;;;5031611;28;20165;-42
2022/12/13 03:45:52;;;;;;;5.87;5.30;;;14.10;52.50;15.10;100308.00;;;;5015067;28;20269;-40
2022/12/13 03:48:18;;;;;;;5.47;4.97;;;14.00;52.50;15.10;100315.00;;;;5049054;28;20182;-41
2022/12/13 03:50:44;;;;;;;5.60;5.10;;;14.00;52.50;15.10;100324.00;;;;5049287;28;20182;-43
2022/12/13 03:53:10;;;;;;;5.27;4.77;;;14.00;52.60;15.10;100324.00;;;;5048916;28;20185;-41
2022/12/13 03:55:35;;;;;;;5.23;4.80;;;14.00;52.60;15.00;100326.00;;;;5049210;28;20903;-41
2022/12/13 03:58:01;;;;;;;5.30;4.90;;;13.90;52.60;15.00;100230.00;;;;5048992;28;20248;-41
2022/12/13 04:00:27;;;;;;;5.37;4.97;;;14.00;52.70;15.00;100316.00;;;;5049336;28;20194;-40
2022/12/13 04:02:52;;;;;;;5.63;5.13;;;13.90;52.60;15.00;100318.00;;;;5049074;28;20181;-41
2022/12/13 04:05:18;;;;;;;5.33;4.83;;;13.90;52.60;15.00;100315.00;;;;5049540;28;20205;-41
2022/12/13 04:07:44;;;;;;;5.77;5.27;;;13.90;52.60;15.00;100312.00;;;;5049262;28;20162;-42
2022/12/13 04:10:10;;;;;;;5.13;4.73;;;13.90;52.70;14.90;100319.00;;;;5049055;28;20674;-41
2022/12/13 04:15:19;;;;;;;5.50;5.00;;;13.90;52.80;14.90;100306.00;;;;5049206;28;20545;-41
2022/12/13 04:17:45;;;;;;;5.40;4.90;;;13.80;52.70;14.90;100325.00;;;;5048974;28;20190;-41
2022/12/13 04:20:11;;;;;;;5.57;5.07;;;13.80;52.70;14.80;100314.00;;;;5048674;28;20194;-41
2022/12/13 04:22:36;;;;;;;5.47;4.97;;;13.80;53.00;14.80;100308.00;;;;5048106;28;20182;-41
2022/12/13 04:25:03;;;;;;;5.27;4.80;;;13.80;52.80;14.80;100312.00;;;;5049254;28;20194;-41
2022/12/13 04:27:29;;;;;;;5.60;5.10;;;13.70;52.80;14.80;100309.00;;;;5049573;28;20647;-41
2022/12/13 04:29:55;;;;;;;5.53;4.87;;;13.80;53.00;14.80;100317.00;;;;5031141;28;20289;-41
2022/12/13 04:32:21;;;;;;;5.20;4.70;;;13.70;53.70;14.70;100310.00;;;;5048772;28;20261;-41
2022/12/13 04:34:46;;;;;;;5.67;4.80;;;13.70;53.50;14.70;100307.00;;;;5048224;28;20170;-40
2022/12/13 04:37:12;;;;;;;6.10;4.70;;;13.70;53.30;14.70;100318.00;;;;5048749;28;20586;-41
2022/12/13 04:39:38;;;;;;;5.73;4.60;;;13.70;53.10;14.70;100314.00;;;;5048598;28;20201;-41
2022/12/13 04:42:03;;;;;;;6.93;4.97;;;13.70;53.10;14.70;100315.00;;;;5048384;28;20265;-42
2022/12/13 04:44:29;;;;;;;6.07;5.47;;;13.60;53.00;14.70;100307.00;;;;5062472;28;20221;-41
2022/12/13 04:46:55;;;;;;;6.23;5.57;;;13.60;53.00;14.60;100313.00;;;;5069231;28;20524;-43
2022/12/13 04:49:21;;;;;;;6.10;5.60;;;13.50;52.90;14.60;100315.00;;;;5069465;28;20190;-42
2022/12/13 04:51:47;;;;;;;6.77;6.17;;;13.50;52.90;14.60;100315.00;;;;5070027;28;20170;-41
2022/12/13 04:54:12;;;;;;;7.13;6.43;;;13.50;52.70;14.50;100312.00;;;;5069782;28;20162;-42
2022/12/13 04:56:38;;;;;;;7.53;6.70;;;13.40;52.60;14.50;100312.00;;;;5050485;28;20165;-41
2022/12/13 04:59:04;;;;;;;8.23;6.77;;;13.40;52.40;14.50;100316.00;;;;5069082;28;20691;-42
2022/12/13 05:01:29;;;;;;;7.37;6.67;;;13.30;52.20;14.50;100308.00;;;;5069383;28;20165;-41
2022/12/13 05:03:55;;;;;;;8.43;7.03;;;13.30;52.10;14.40;100312.00;;;;5069571;28;20172;-41
2022/12/13 05:06:21;;;;;;;8.33;7.20;;;13.30;52.00;14.40;100309.00;;;;5069656;28;20212;-41
2022/12/13 05:08:47;;;;;;;8.20;7.40;;;13.30;52.00;14.40;100308.00;;;;5051525;28;20645;-42
2022/12/13 05:11:12;;;;;;;8.17;7.37;;;13.20;51.80;14.40;100297.00;;;;5069015;28;20181;-42
2022/12/13 05:13:38;;;;;;;8.53;7.73;;;13.20;51.70;14.30;100300.00;;;;5069501;28;20181;-42
2022/12/13 05:16:06;;;;;;;7.83;7.03;;;13.20;51.60;14.30;100288.00;;;;5067162;28;20571;-42
2022/12/13 05:18:33;;;;;;;8.77;7.87;;;13.20;51.50;14.30;100294.00;;;;5066624;28;20221;-41
2022/12/13 05:21:07;;;;;;;7.93;7.23;;;13.10;52.10;14.20;100291.00;;;;5068886;28;20662;-43
2022/12/13 05:23:33;;;;;;;8.83;7.93;;;13.10;51.30;14.20;100292.00;;;;5069109;28;20248;-40
2022/12/13 05:25:59;;;;;;;8.80;7.90;;;13.10;51.10;14.20;100293.00;;;;5068484;28;20268;-41
2022/12/13 05:28:26;;;;;;;8.60;7.70;;;13.10;51.30;14.10;100289.00;;;;5068562;28;20200;-41
2022/12/13 05:30:57;;;;;;;9.60;8.47;;;13.10;51.20;14.10;100297.00;;;;5069858;28;20150;-43
2022/12/13 05:33:23;;;;;;;8.97;8.07;;;13.00;50.90;14.10;100308.00;;;;5070295;28;20170;-41
2022/12/13 05:35:49;;;;;;;9.70;8.20;;;13.00;50.70;14.10;100291.00;;;;5073676;28;20682;-41
2022/12/13 05:38:14;;;;;;;9.43;8.00;;;13.00;50.50;14.00;100299.00;;;;5073258;28;20173;-42
2022/12/13 05:40:40;;;;;;;10.57;8.70;;;12.90;50.20;14.00;100288.00;;;;5072506;28;20177;-41
2022/12/13 05:43:06;;;;;;;12.07;8.63;;;13.00;50.10;14.00;100288.00;;;;5073050;28;20169;-41
2022/12/13 05:45:32;;;;;;;9.67;8.27;;;13.10;50.00;14.00;100291.00;;;;5073561;28;20201;-41
2022/12/13 05:47:57;;;;;;;10.87;8.57;;;13.20;49.80;14.10;100289.00;;;;5072785;28;20161;-40
2022/12/13 05:50:23;;;;;;;10.20;8.40;;;13.30;49.60;14.10;100292.00;;;;5072570;28;20591;-41
2022/12/13 05:52:49;;;;;;;10.07;8.57;;;13.40;49.40;14.10;100289.00;;;;5072584;28;20174;-42
2022/12/13 05:55:15;;;;;;;9.87;8.33;;;13.40;49.20;14.20;100274.00;;;;5070155;28;20547;-41
2022/12/13 05:57:41;;;;;;;10.13;7.93;;;13.50;49.20;14.20;100288.00;;;;5073495;28;20177;-41
2022/12/13 06:00:08;;;;;;;12.00;8.73;;;13.50;49.20;14.20;100292.00;;;;5071986;28;20682;-41
2022/12/13 06:02:41;;;;;;;8.97;8.07;;;13.50;49.20;14.20;100288.00;;;;5053930;28;20569;-41
2022/12/13 06:05:08;;;;;;;10.27;7.97;;;13.50;49.30;14.20;100289.00;;;;5055241;28;20182;-41
2022/12/13 06:07:34;;;;;;;14.10;7.70;;;13.50;49.50;14.00;100287.00;;;;5067148;28;20231;-41
2022/12/13 06:10:00;;;;;;;10.73;7.47;;;13.50;49.70;14.20;100292.00;;;;5071530;28;20753;-41
2022/12/13 06:12:26;;;;;;;7.90;6.97;;;13.50;50.20;14.20;100288.00;;;;5071228;28;20184;-42
2022/12/13 06:14:51;;;;;;;10.03;7.87;;;13.50;50.20;14.20;100285.00;;;;5054009;28;20235;-41
2022/12/13 06:17:18;;;;;;;11.00;7.20;;;13.50;50.20;14.20;100279.00;;;;5053867;28;20185;-42
2022/12/13 06:19:45;;;;;;;9.77;6.70;;;13.50;50.30;14.20;100287.00;;;;5071492;28;20231;-42
2022/12/13 06:22:11;;;;;;;7.30;6.60;;;13.50;50.40;14.20;100294.00;;;;5070903;28;20219;-41
2022/12/13 06:24:36;;;;;;;7.83;6.80;;;13.40;50.50;14.20;100278.00;;;;5071325;28;20189;-41
2022/12/13 06:27:04;;;;;;;11.07;6.80;;;13.40;50.60;14.20;100288.00;;;;5071724;28;20172;-41
2022/12/13 06:29:29;;;;;;;8.53;6.90;;;13.40;50.60;14.20;100288.00;;;;5071743;28;20666;-42
2022/12/13 06:31:57;;;;;;;10.33;6.60;;;13.40;50.60;14.20;100286.00;;;;5070556;28;20181;-41
2022/12/13 06:34:23;;;;;;;10.77;7.13;;;13.40;50.70;14.10;100279.00;;;;5053346;28;20209;-41
2022/12/13 06:36:49;;;;;;;10.67;6.30;;;13.30;50.80;14.10;100272.00;;;;5071268;28;20333;-41
2022/12/13 06:39:14;;;;;;;7.67;6.13;;;13.30;50.80;14.10;100278.00;;;;5071457;28;20201;-42
2022/12/13 06:41:40;;;;;;;9.63;6.30;;;13.30;51.00;14.10;100285.00;;;;5070986;28;20180;-41
2022/12/13 06:44:06;;;;;;;9.50;6.40;;;13.20;51.00;14.10;100288.00;;;;5071471;28;20234;-41
2022/12/13 06:46:32;;;;;;;9.83;6.37;;;13.20;51.10;14.10;100289.00;;;;5070387;28;20173;-42
2022/12/13 06:48:58;;;;;;;10.67;6.40;;;13.20;51.80;14.00;100293.00;;;;5053341;28;20330;-41
2022/12/13 06:51:24;;;;;;;8.77;6.03;;;13.20;51.20;14.00;100290.00;;;;5071767;28;20232;-41
2022/12/13 06:53:49;;;;;;;6.33;5.73;;;13.20;51.10;14.00;100309.00;;;;5072563;28;20181;-42
2022/12/13 06:56:15;;;;;;;7.13;6.03;;;13.10;51.10;14.00;100299.00;;;;5070957;28;20653;-43
2022/12/13 06:58:41;;;;;;;7.77;5.87;;;13.10;51.10;13.90;100297.00;;;;5036958;28;20239;-41
2022/12/13 07:01:13;;;;;;;7.60;6.13;;;13.10;51.20;13.90;100306.00;;;;5071893;28;20260;-42
2022/12/13 07:03:39;;;;;;;6.93;5.87;;;13.10;51.20;13.90;100294.00;;;;5055847;28;20161;-40
2022/12/13 07:06:16;;;;;;;6.50;5.90;;;13.00;51.20;13.90;100298.00;;;;5077926;28;20327;-40
2022/12/13 07:08:43;;;;;;;6.10;5.50;;;13.00;51.30;13.90;100304.00;;;;5059764;28;20191;-41
2022/12/13 07:11:17;;;;;;;6.53;5.83;;;13.00;51.40;13.80;100304.00;;;;5075434;28;20256;-41
2022/12/13 07:13:43;;;;;;;6.07;5.47;;;13.00;51.40;13.80;100303.00;;;;5053242;28;20651;-42
2022/12/13 07:16:09;;;;;;;6.17;5.57;;;13.00;51.40;13.80;100215.00;;;;5071328;28;20166;-43
2022/12/13 07:18:35;;;;;;;6.47;5.73;;;12.90;51.40;13.80;100301.00;;;;5070873;28;20227;-41
2022/12/13 07:21:05;;;;;;;6.13;5.53;;;12.90;51.40;13.70;100292.00;;;;5070655;28;20173;-41
2022/12/13 07:23:30;;;;;;;7.40;5.60;;;12.90;51.50;13.70;100299.00;;;;5053633;28;20178;-42
2022/12/13 07:25:56;;;;;;;7.17;5.97;;;12.90;51.60;13.70;100299.00;;;;5070919;28;20205;-42
2022/12/13 07:28:22;;;;;;;6.63;5.67;;;12.90;51.60;13.70;100299.00;;;;5070916;28;20646;-40
2022/12/13 07:30:48;;;;;;;6.07;5.47;;;12.90;51.60;13.70;100300.00;;;;5071123;28;20212;-41
2022/12/13 07:33:14;;;;;;;6.17;5.60;;;12.90;51.50;13.70;100304.00;;;;5070482;28;20205;-41
2022/12/13 07:35:40;;;;;;;5.93;5.40;;;13.00;51.50;13.70;100292.00;;;;5070499;28;20228;-41
2022/12/13 07:38:06;;;;;;;5.87;5.27;;;13.10;51.40;13.80;100310.00;;;;5070566;28;20640;-40
2022/12/13 07:40:34;;;;;;;5.90;5.37;;;13.20;51.60;13.80;100305.00;;;;5070288;28;20184;-41
2022/12/13 07:42:59;;;;;;;6.67;5.43;;;13.20;51.80;13.80;100299.00;;;;5069665;28;20257;-41
2022/12/13 07:45:25;;;;;;;5.97;5.40;;;13.30;51.20;13.90;100308.00;;;;5070704;28;20198;-40
2022/12/13 07:47:51;;;;;;;6.83;5.60;;;13.30;51.00;13.90;100311.00;;;;5070203;28;20174;-41
2022/12/13 07:50:19;;;;;;;5.83;5.23;;;13.40;51.00;13.90;100301.00;;;;5070827;28;20189;-42
2022/12/13 07:52:48;;;;;;;5.60;5.10;;;13.40;51.00;13.90;100298.00;;;;5069917;28;20173;-41
2022/12/13 07:55:14;;;;;;;5.70;5.20;;;13.40;51.00;14.00;100302.00;;;;5070367;28;20193;-42
2022/12/13 07:57:40;;;;;;;5.97;5.47;;;13.40;51.00;14.00;100311.00;;;;5051559;28;20170;-41
2022/12/13 08:00:06;;;;;;;6.00;5.37;;;13.40;51.00;14.00;100314.00;;;;5069796;28;20236;-41
2022/12/13 08:02:32;;;;;;;5.50;5.00;;;13.40;51.00;14.00;100304.00;;;;5069371;28;20658;-42
2022/12/13 08:04:58;;;;;;;5.40;4.90;;;13.40;51.00;14.00;100308.00;;;;5070373;28;20268;-41
2022/12/13 08:07:24;;;;;;;5.67;5.13;;;13.40;51.00;14.00;100308.00;;;;5070296;28;20177;-42
2022/12/13 08:09:49;;;;;;;5.50;5.00;;;13.40;51.00;14.00;100308.00;;;;5070229;28;20542;-44
2022/12/13 08:12:15;;;;;;;5.70;5.20;;;13.40;51.00;14.10;100305.00;;;;5070965;28;20219;-41
2022/12/13 08:14:41;;;;;;;5.53;5.03;;;13.40;51.00;14.00;100307.00;;;;5069722;28;20666;-42
2022/12/13 08:17:07;;;;;;;5.37;4.87;;;13.40;51.00;14.00;100301.00;;;;5051801;28;20200;-41
2022/12/13 08:19:39;;;;;;;5.90;5.30;;;13.40;51.30;14.00;100308.00;;;;5106640;27;21096;-41
2022/12/13 08:22:05;;;;;;;5.47;4.90;;;13.40;51.20;14.00;100319.00;;;;5086130;28;20234;-42
2022/12/13 08:24:31;;;;;;;5.67;5.17;;;13.40;51.20;14.00;100303.00;;;;5086913;28;20680;-42
2022/12/13 08:27:01;;;;;;;5.20;4.80;;;13.40;51.20;14.10;100299.00;;;;5086861;28;20176;-41
2022/12/13 08:29:31;;;;;;;5.70;5.20;;;13.40;51.20;14.10;100306.00;;;;5087077;28;20193;-42
2022/12/13 08:31:56;;;;;;;5.60;5.10;;;13.40;51.30;14.10;100233.00;;;;5085736;28;20188;-43
2022/12/13 08:34:22;;;;;;;5.80;5.30;;;13.40;51.20;14.10;100310.00;;;;5085982;28;20249;-42
2022/12/13 08:36:48;;;;;;;5.60;5.10;;;13.40;51.30;14.00;100315.00;;;;5086353;28;20284;-41
2022/12/13 08:39:14;;;;;;;5.57;5.07;;;13.40;51.30;14.10;100307.00;;;;5086007;28;20208;-41
2022/12/13 08:41:39;;;;;;;5.63;5.13;;;13.40;51.30;14.10;100313.00;;;;5085499;28;20192;-42
2022/12/13 08:44:05;;;;;;;5.40;4.90;;;13.40;51.20;14.10;100307.00;;;;5086305;28;20177;-41
2022/12/13 08:46:31;;;;;;;5.47;4.93;;;13.40;51.10;14.10;100305.00;;;;5084817;28;20173;-41
2022/12/13 08:48:57;;;;;;;5.30;4.80;;;13.40;51.30;14.10;100307.00;;;;5079442;28;20607;-41
2022/12/13 08:51:24;;;;;;;5.50;5.00;;;13.40;51.30;14.10;100307.00;;;;5084299;28;20195;-41
2022/12/13 08:53:52;;;;;;;4.80;4.40;;;13.50;51.40;14.10;100307.00;;;;5085726;28;20531;-41
2022/12/13 08:56:19;;;;;;;5.47;4.97;;;13.50;51.40;14.10;100314.00;;;;5085414;28;20165;-42
2022/12/13 08:58:48;;;;;;;5.60;4.60;;;13.60;51.70;14.20;100320.00;;;;5085530;28;20229;-42
2022/12/13 09:01:14;;;;;;;5.60;4.93;;;13.60;52.30;14.20;100319.00;;;;5086795;28;20526;-41
2022/12/13 09:03:40;;;;;;;5.77;5.00;;;13.80;51.60;14.30;100303.00;;;;5086638;28;20226;-42
2022/12/13 09:06:11;;;;;;;5.10;4.63;;;13.90;51.40;14.30;100308.00;;;;5086726;28;20176;-41
2022/12/13 09:08:37;;;;;;;5.07;4.60;;;14.10;51.10;14.40;100316.00;;;;5086518;28;20702;-41
2022/12/13 09:11:04;;;;;;;5.17;4.67;;;14.20;50.90;14.50;100316.00;;;;5086387;28;20271;-41
2022/12/13 09:13:31;;;;;;;5.27;4.77;;;14.40;50.80;14.60;100319.00;;;;5085026;28;20258;-42
2022/12/13 09:15:58;;;;;;;4.67;4.27;;;14.50;50.50;14.70;100322.00;;;;5086613;28;20250;-42
2022/12/13 09:18:24;;;;;;;4.83;4.43;;;14.70;50.40;14.80;100320.00;;;;5084629;28;20209;-41
2022/12/13 09:20:50;;;;;;;5.17;4.40;;;14.80;50.20;14.90;100323.00;;;;5084662;28;20235;-41
2022/12/13 09:23:16;;;;;;;7.10;4.97;;;14.90;50.30;15.00;100315.00;;;;5086016;28;20255;-42
2022/12/13 09:25:42;;;;;;;8.10;4.60;;;15.00;50.40;15.10;100312.00;;;;5085438;28;20192;-43
2022/12/13 09:28:08;;;;;;;10.40;4.60;;;15.10;50.20;15.20;100309.00;;;;5085964;28;20173;-41
2022/12/13 09:30:37;;;;;;;6.60;4.70;;;15.30;50.40;15.30;100311.00;;;;5075284;28;20282;-41
2022/12/13 09:33:03;;;;;;;10.97;4.70;;;15.40;51.00;15.50;100318.00;;;;5072099;28;20178;-41
2022/12/13 09:35:29;;;;;;;8.10;4.93;;;15.50;51.90;15.50;100320.00;;;;5072562;28;20239;-42
2022/12/13 09:37:55;;;;;;;10.17;5.10;;;15.50;52.00;15.60;100315.00;;;;5072319;28;20840;-41
2022/12/13 09:40:25;;;;;;;5.60;4.40;;;15.50;52.30;15.70;100303.00;;;;5072431;28;20193;-41
2022/12/13 09:42:54;;;;;;;10.57;5.17;;;15.60;52.60;15.70;100318.00;;;;5070643;28;20186;-41
2022/12/13 09:45:20;;;;;;;13.80;5.00;;;15.60;52.50;15.80;100311.00;;;;5071094;28;20536;-42
2022/12/13 09:47:47;;;;;;;8.40;4.87;;;15.80;52.70;15.90;100312.00;;;;5070865;28;20165;-41
2022/12/13 09:50:26;;;;;;;10.50;4.67;;;15.80;52.50;16.00;100293.00;;;;5070849;28;20603;-42
2022/12/13 09:52:51;;;;;;;9.97;4.70;;;15.90;52.50;16.00;100304.00;;;;5054041;28;20177;-42
2022/12/13 09:55:23;;;;;;;7.73;4.50;;;15.90;52.30;16.10;100306.00;;;;5071855;28;20204;-42
2022/12/13 09:57:49;;;;;;;7.63;4.47;;;15.90;52.10;16.10;100311.00;;;;5070861;28;20304;-41
2022/12/13 10:00:18;;;;;;;7.10;4.70;;;15.90;52.10;16.10;100314.00;;;;5070122;28;20276;-41
2022/12/13 10:02:51;;;;;;;8.30;4.80;;;15.90;52.10;16.20;100312.00;;;;5070315;28;20183;-42
2022/12/13 10:05:20;;;;;;;6.87;4.27;;;15.90;52.20;16.20;100311.00;;;;5072090;28;20220;-43
2022/12/13 10:07:46;;;;;;;9.67;4.50;;;15.80;52.20;16.20;100307.00;;;;5054261;28;20208;-41
2022/12/13 10:10:13;;;;;;;4.70;4.10;;;15.80;52.20;16.20;100305.00;;;;5071444;28;20233;-43
2022/12/13 10:12:39;;;;;;;7.03;4.20;;;15.80;52.40;16.20;100305.00;;;;5070298;28;20584;-41
2022/12/13 10:15:05;;;;;;;6.33;4.33;;;15.80;52.50;16.10;100283.00;;;;5070313;28;20177;-41
2022/12/13 10:17:35;;;;;;;8.33;4.70;;;15.80;52.50;16.10;100294.00;;;;5053767;28;20177;-41
2022/12/13 10:20:01;;;;;;;5.13;4.37;;;15.70;53.10;16.10;100301.00;;;;5070194;28;20689;-43
2022/12/13 10:22:27;;;;;;;5.23;4.27;;;15.70;52.50;16.10;100267.00;;;;5071570;28;20173;-42
2022/12/13 10:24:59;;;;;;;6.50;4.50;;;15.70;52.50;16.10;100285.00;;;;5070484;28;20542;-41
2022/12/13 10:27:44;;;;;;;6.47;4.23;;;15.70;52.50;16.10;100284.00;;;;5070566;28;20162;-41
2022/12/13 10:30:21;;;;;;;5.47;4.40;;;15.70;52.50;16.10;100282.00;;;;5071423;28;20542;-41
2022/12/13 10:32:58;;;;;;;4.80;4.10;;;15.80;52.60;16.10;100272.00;;;;5071173;28;20172;-43
2022/12/13 10:35:37;;;;;;;4.33;3.90;;;15.80;52.50;16.10;100262.00;;;;5071070;28;20626;-43
2022/12/13 10:38:25;;;;;;;5.60;4.10;;;15.80;52.40;16.10;100263.00;;;;5070088;28;20189;-40
2022/12/13 10:40:51;;;;;;;5.80;4.40;;;15.80;52.50;16.10;100266.00;;;;5069649;28;20178;-42
2022/12/13 10:43:21;;;;;;;4.83;4.10;;;15.80;52.50;16.10;100260.00;;;;5069372;28;20184;-42
2022/12/13 10:45:56;;;;;;;4.20;3.80;;;15.70;52.50;16.10;100257.00;;;;5071251;28;20647;-41
2022/12/13 10:48:24;;;;;;;6.33;4.00;;;15.70;52.50;16.10;100254.00;;;;5070708;28;20180;-42
2022/12/13 10:51:10;;;;;;;4.37;3.90;;;15.70;52.50;16.10;100253.00;;;;5074049;28;20203;-41
2022/12/13 10:53:40;;;;;;;4.20;3.80;;;15.70;52.40;16.10;100240.00;;;;5073058;28;20201;-42
2022/12/13 10:56:06;;;;;;;4.40;4.00;;;15.80;52.40;16.20;100238.00;;;;5070096;28;20196;-42